createdAt,value
2023-01-22T00:01:27.932Z,-0.1
2023-01-22T00:04:27.889Z,0
2023-01-22T00:07:27.893Z,0
2023-01-22T00:10:27.933Z,0
2023-01-22T00:13:27.919Z,0
2023-01-22T00:16:27.885Z,0
2023-01-22T00:19:27.886Z,0
2023-01-22T00:22:27.887Z,0
2023-01-22T00:25:27.887Z,0
2023-01-22T00:28:27.941Z,0
2023-01-22T00:34:27.894Z,0
2023-01-22T00:37:27.900Z,0
2023-01-22T00:40:27.895Z,0
2023-01-22T00:43:27.899Z,0
2023-01-22T00:46:28.016Z,0
2023-01-22T00:49:27.905Z,0
2023-01-22T00:52:27.911Z,0
2023-01-22T00:55:27.912Z,0
2023-01-22T01:01:27.920Z,0
2023-01-22T01:04:27.913Z,0.1
2023-01-22T01:07:27.914Z,0
2023-01-22T01:10:27.914Z,0
2023-01-22T01:13:28.048Z,0
2023-01-22T01:16:27.991Z,0
2023-01-22T01:19:27.927Z,0
2023-01-22T01:22:27.920Z,0
2023-01-22T01:25:27.921Z,0
2023-01-22T01:28:27.921Z,0
2023-01-22T01:31:28.164Z,0
2023-01-22T01:34:27.924Z,0
2023-01-22T01:37:27.940Z,0
2023-01-22T01:40:27.930Z,0
2023-01-22T01:43:27.935Z,0
2023-01-22T01:46:27.986Z,0
2023-01-22T01:49:28.062Z,0
2023-01-22T01:52:27.937Z,0
2023-01-22T01:55:27.956Z,0
2023-01-22T01:58:27.950Z,0
2023-01-22T02:01:27.966Z,0
2023-01-22T02:04:27.955Z,0
2023-01-22T02:07:28.076Z,0
2023-01-22T02:10:27.957Z,0
2023-01-22T02:13:27.955Z,0
2023-01-22T02:16:28.041Z,0
2023-01-22T02:19:27.966Z,0
2023-01-22T02:22:27.979Z,0
2023-01-22T02:25:28.086Z,0
2023-01-22T02:28:27.970Z,0
2023-01-22T02:31:28.020Z,0
2023-01-22T02:34:27.975Z,0
2023-01-22T02:37:27.971Z,0
2023-01-22T02:40:27.972Z,0
2023-01-22T02:43:28.089Z,0.1
2023-01-22T02:46:27.984Z,0
2023-01-22T02:49:27.980Z,0.1
2023-01-22T02:52:27.987Z,0.1
2023-01-22T02:55:27.978Z,0.1
2023-01-22T02:58:27.977Z,0.1
2023-01-22T03:01:28.126Z,0.1
2023-01-22T03:04:27.979Z,0.1
2023-01-22T03:07:27.981Z,0.1
2023-01-22T03:10:27.978Z,0.1
2023-01-22T03:13:27.974Z,0.1
2023-01-22T03:16:28.043Z,0.1
2023-01-22T03:19:28.107Z,0.1
2023-01-22T03:22:28.004Z,0.1
2023-01-22T03:25:27.996Z,0.1
2023-01-22T03:28:27.995Z,0.1
2023-01-22T03:31:28.087Z,0.1
2023-01-22T03:34:28.003Z,0.1
2023-01-22T03:37:28.121Z,0
2023-01-22T03:40:28.003Z,0
2023-01-22T03:43:28.003Z,0
2023-01-22T03:46:28.021Z,0
2023-01-22T03:49:28.008Z,0
2023-01-22T03:52:28.011Z,0
2023-01-22T03:55:28.128Z,-0.1
2023-01-22T03:58:28.019Z,-0.1
2023-01-22T04:01:28.091Z,-0.1
2023-01-22T04:04:28.022Z,-0.1
2023-01-22T04:07:28.020Z,-0.1
2023-01-22T04:10:28.020Z,-0.1
2023-01-22T04:13:28.147Z,-0.1
2023-01-22T04:16:28.075Z,-0.1
2023-01-22T04:19:28.025Z,-0.1
2023-01-22T04:22:28.028Z,-0.1
2023-01-22T04:25:28.033Z,-0.1
2023-01-22T04:28:28.035Z,-0.1
2023-01-22T04:31:28.296Z,-0.1
2023-01-22T04:34:28.037Z,-0.1
2023-01-22T04:37:28.044Z,-0.1
2023-01-22T04:40:28.040Z,0
2023-01-22T04:43:28.034Z,-0.1
2023-01-22T04:46:28.087Z,-0.1
2023-01-22T04:49:28.158Z,-0.1
2023-01-22T04:52:28.062Z,-0.1
2023-01-22T04:55:28.052Z,0
2023-01-22T04:58:28.050Z,0
2023-01-22T05:01:28.118Z,-0.1
2023-01-22T05:04:28.061Z,0
2023-01-22T05:07:28.094Z,0
2023-01-22T05:10:28.226Z,0
2023-01-22T05:13:28.134Z,0
2023-01-22T05:16:28.148Z,0
2023-01-22T05:19:28.158Z,0
2023-01-22T05:22:28.164Z,0
2023-01-22T05:25:28.168Z,0
2023-01-22T05:28:28.326Z,0
2023-01-22T05:31:28.191Z,0
2023-01-22T05:34:28.160Z,-0.1
2023-01-22T05:37:28.171Z,0
2023-01-22T05:40:28.161Z,0
2023-01-22T05:43:28.185Z,0
2023-01-22T05:46:28.331Z,0
2023-01-22T05:49:28.162Z,0
2023-01-22T05:52:28.173Z,0
2023-01-22T05:55:28.162Z,0
2023-01-22T05:58:28.168Z,0
2023-01-22T06:01:28.181Z,0
2023-01-22T06:04:28.295Z,0
2023-01-22T06:07:28.187Z,0
2023-01-22T06:10:28.196Z,0
2023-01-22T06:13:28.195Z,0
2023-01-22T06:16:28.209Z,0
2023-01-22T06:19:28.194Z,0
2023-01-22T06:22:28.333Z,-0.1
2023-01-22T06:25:28.205Z,-0.1
2023-01-22T06:28:28.208Z,0
2023-01-22T06:31:28.316Z,0
2023-01-22T06:34:28.206Z,0
2023-01-22T06:37:28.222Z,0
2023-01-22T06:40:28.335Z,-0.1
2023-01-22T06:43:28.214Z,0
2023-01-22T06:46:28.235Z,0
2023-01-22T06:49:28.213Z,0
2023-01-22T06:52:28.227Z,0
2023-01-22T06:55:28.219Z,0
2023-01-22T06:58:28.340Z,0
2023-01-22T07:01:28.235Z,0
2023-01-22T07:04:28.227Z,0
2023-01-22T07:07:28.242Z,0
2023-01-22T07:10:28.230Z,0
2023-01-22T07:13:28.239Z,0
2023-01-22T07:16:28.460Z,0
2023-01-22T07:19:28.240Z,0
2023-01-22T07:22:28.253Z,0
2023-01-22T07:25:28.242Z,0.1
2023-01-22T07:28:28.259Z,0.1
2023-01-22T07:31:28.321Z,0.1
2023-01-22T07:34:34.248Z,0.1
2023-01-22T07:37:28.397Z,0.1
2023-01-22T07:40:28.311Z,0.1
2023-01-22T07:43:28.262Z,0.1
2023-01-22T07:46:28.300Z,0.1
2023-01-22T07:49:28.274Z,0.2
2023-01-22T07:52:28.330Z,0.2
2023-01-22T07:55:28.412Z,0.2
2023-01-22T07:58:28.286Z,0.3
2023-01-22T08:01:28.295Z,0.3
2023-01-22T08:04:28.288Z,0.3
2023-01-22T08:07:28.313Z,0.3
2023-01-22T08:10:28.290Z,0.3
2023-01-22T08:13:28.425Z,0.4
2023-01-22T08:16:28.358Z,0.4
2023-01-22T08:19:28.312Z,0.4
2023-01-22T08:22:28.322Z,0.4
2023-01-22T08:25:28.312Z,0.5
2023-01-22T08:28:28.318Z,0.4
2023-01-22T08:31:28.803Z,0.5
2023-01-22T08:34:28.324Z,0.5
2023-01-22T08:37:28.337Z,0.5
2023-01-22T08:40:28.344Z,0.6
2023-01-22T08:43:28.340Z,0.6
2023-01-22T08:46:28.351Z,0.7
2023-01-22T08:49:28.470Z,0.7
2023-01-22T08:52:28.368Z,0.7
2023-01-22T08:55:28.385Z,0.7
2023-01-22T08:58:28.372Z,0.6
2023-01-22T09:01:28.383Z,0.6
2023-01-22T09:04:28.381Z,0.6
2023-01-22T09:07:28.516Z,0.6
2023-01-22T09:10:28.389Z,0.5
2023-01-22T09:13:28.395Z,0.6
2023-01-22T09:16:28.492Z,0.5
2023-01-22T09:19:28.399Z,0.6
2023-01-22T09:22:28.415Z,0.6
2023-01-22T09:25:28.531Z,0.6
2023-01-22T09:28:28.423Z,0.7
2023-01-22T09:31:28.488Z,0.8
2023-01-22T09:34:28.425Z,0.8
2023-01-22T09:37:28.465Z,0.8
2023-01-22T09:40:28.440Z,0.8
2023-01-22T09:43:28.574Z,0.8
2023-01-22T09:46:28.463Z,0.9
2023-01-22T09:49:28.454Z,0.9
2023-01-22T09:52:28.470Z,0.8
2023-01-22T09:55:28.466Z,0.9
2023-01-22T09:58:28.471Z,0.9
2023-01-22T10:01:28.647Z,0.8
2023-01-22T10:04:28.494Z,0.8
2023-01-22T10:07:28.501Z,0.9
2023-01-22T10:10:28.498Z,0.9
2023-01-22T10:13:28.508Z,0.9
2023-01-22T10:16:28.552Z,0.9
2023-01-22T10:19:28.633Z,0.8
2023-01-22T10:22:28.530Z,0.8
2023-01-22T10:25:28.528Z,0.8
2023-01-22T10:28:28.528Z,0.8
2023-01-22T10:31:28.703Z,0.8
2023-01-22T10:34:28.540Z,0.8
2023-01-22T10:37:28.688Z,0.8
2023-01-22T10:40:28.555Z,0.8
2023-01-22T10:43:30.285Z,0.9
2023-01-22T10:46:28.660Z,0.8
2023-01-22T10:49:28.568Z,0.8
2023-01-22T10:52:28.589Z,0.8
2023-01-22T10:55:28.724Z,0.8
2023-01-22T10:58:28.586Z,0.7
2023-01-22T11:01:28.661Z,0.7
2023-01-22T11:04:28.603Z,0.7
2023-01-22T11:07:30.458Z,0.7
2023-01-22T11:10:28.610Z,0.8
2023-01-22T11:13:28.736Z,0.8
2023-01-22T11:16:28.636Z,0.8
2023-01-22T11:19:36.772Z,0.8
2023-01-22T11:22:28.648Z,0.8
2023-01-22T11:25:28.644Z,0.8
2023-01-22T11:28:28.656Z,0.8
2023-01-22T11:31:28.910Z,0.8
2023-01-22T11:34:28.660Z,0.8
2023-01-22T11:37:28.688Z,0.8
2023-01-22T11:40:28.682Z,0.9
2023-01-22T11:43:28.685Z,0.9
2023-01-22T11:46:28.723Z,0.9
2023-01-22T11:49:28.825Z,0.9
2023-01-22T11:52:28.720Z,0.9
2023-01-22T11:55:28.719Z,0.9
2023-01-22T11:58:28.727Z,1
2023-01-22T12:01:28.742Z,1
2023-01-22T12:04:28.741Z,1
2023-01-22T12:07:28.888Z,1
2023-01-22T12:10:28.761Z,0.9
2023-01-22T12:13:28.758Z,0.9
2023-01-22T12:16:28.798Z,1
2023-01-22T12:19:28.785Z,1
2023-01-22T12:22:28.798Z,1
2023-01-22T12:25:28.909Z,0.9
2023-01-22T12:28:28.803Z,0.9
2023-01-22T12:31:28.914Z,0.8
2023-01-22T12:34:28.808Z,0.8
2023-01-22T12:37:28.820Z,0.7
2023-01-22T12:40:28.813Z,0.7
2023-01-22T12:43:28.938Z,0.7
2023-01-22T12:46:28.851Z,0.7
2023-01-22T12:49:28.823Z,0.7
2023-01-22T12:52:28.839Z,0.7
2023-01-22T12:55:28.833Z,0.7
2023-01-22T12:58:28.832Z,0.7
2023-01-22T13:01:28.967Z,0.7
2023-01-22T13:04:28.838Z,0.7
2023-01-22T13:07:28.853Z,0.7
2023-01-22T13:10:28.844Z,0.7
2023-01-22T13:13:28.860Z,0.7
2023-01-22T13:16:28.912Z,0.7
2023-01-22T13:19:28.965Z,0.7
2023-01-22T13:22:28.859Z,0.7
2023-01-22T13:25:28.855Z,0.7
2023-01-22T13:28:28.848Z,0.7
2023-01-22T13:31:29.065Z,0.8
2023-01-22T13:34:29.058Z,0.7
2023-01-22T13:37:28.989Z,0.7
2023-01-22T13:40:30.369Z,0.7
2023-01-22T13:43:28.856Z,0.7
2023-01-22T13:46:28.939Z,0.6
2023-01-22T13:49:28.863Z,0.6
2023-01-22T13:52:28.877Z,0.6
2023-01-22T13:55:28.990Z,0.6
2023-01-22T13:58:30.892Z,0.6
2023-01-22T14:01:28.898Z,0.6
2023-01-22T14:04:28.882Z,0.6
2023-01-22T14:07:28.883Z,0.6
2023-01-22T14:10:28.890Z,0.6
2023-01-22T14:13:28.997Z,0.6
2023-01-22T14:16:28.956Z,0.6
2023-01-22T14:19:28.878Z,0.6
2023-01-22T14:22:28.904Z,0.6
2023-01-22T14:25:30.963Z,0.6
2023-01-22T14:28:28.890Z,0.6
2023-01-22T14:31:29.062Z,0.6
2023-01-22T14:34:28.903Z,0.6
2023-01-22T14:37:28.922Z,0.6
2023-01-22T14:40:28.917Z,0.6
2023-01-22T14:43:28.926Z,0.6
2023-01-22T14:46:28.938Z,0.6
2023-01-22T14:49:29.059Z,0.6
2023-01-22T14:52:28.950Z,0.6
2023-01-22T14:55:28.946Z,0.6
2023-01-22T14:58:28.954Z,0.6
2023-01-22T15:01:28.965Z,0.6
2023-01-22T15:04:28.966Z,0.6
2023-01-22T15:07:29.099Z,0.6
2023-01-22T15:10:28.985Z,0.6
2023-01-22T15:13:28.992Z,0.6
2023-01-22T15:16:29.100Z,0.5
2023-01-22T15:19:34.148Z,0.5
2023-01-22T15:22:29.036Z,0.5
2023-01-22T15:25:29.155Z,0.5
2023-01-22T15:28:29.035Z,0.5
2023-01-22T15:31:29.072Z,0.6
2023-01-22T15:34:29.061Z,0.5
2023-01-22T15:37:29.061Z,0.5
2023-01-22T15:40:29.067Z,0.5
2023-01-22T15:43:29.204Z,0.5
2023-01-22T15:46:29.097Z,0.5
2023-01-22T15:49:29.095Z,0.5
2023-01-22T15:52:29.105Z,0.6
2023-01-22T15:55:29.120Z,0.5
2023-01-22T15:58:29.124Z,0.5
2023-01-22T16:01:29.332Z,0.5
2023-01-22T16:04:29.151Z,0.5
2023-01-22T16:07:29.143Z,0.5
2023-01-22T16:10:29.148Z,0.5
2023-01-22T16:13:29.163Z,0.5
2023-01-22T16:16:29.194Z,0.5
2023-01-22T16:19:29.293Z,0.5
2023-01-22T16:22:29.187Z,0.5
2023-01-22T16:25:29.186Z,0.5
2023-01-22T16:28:29.196Z,0.5
2023-01-22T16:31:29.374Z,0.5
2023-01-22T16:34:29.219Z,0.5
2023-01-22T16:37:29.339Z,0.5
2023-01-22T16:40:29.230Z,0.5
2023-01-22T16:43:29.239Z,0.5
2023-01-22T16:46:29.362Z,0.6
2023-01-22T16:49:29.251Z,0.6
2023-01-22T16:52:29.266Z,0.6
2023-01-22T16:55:29.403Z,0.6
2023-01-22T16:58:29.277Z,0.5
2023-01-22T17:01:29.349Z,0.5
2023-01-22T17:04:29.287Z,0.6
2023-01-22T17:07:33.813Z,0.5
2023-01-22T17:10:29.298Z,0.6
2023-01-22T17:13:29.434Z,0.6
2023-01-22T17:16:29.414Z,0.6
2023-01-22T17:19:29.312Z,0.6
2023-01-22T17:22:29.336Z,0.6
2023-01-22T17:25:29.324Z,0.6
2023-01-22T17:28:29.329Z,0.6
2023-01-22T17:31:29.594Z,0.6
2023-01-22T17:34:29.341Z,0.6
2023-01-22T17:37:29.344Z,0.6
2023-01-22T17:40:29.349Z,0.6
2023-01-22T17:43:29.354Z,0.6
2023-01-22T17:46:29.423Z,0.6
2023-01-22T17:49:29.485Z,0.6
2023-01-22T17:52:29.365Z,0.6
2023-01-22T17:55:29.375Z,0.6
2023-01-22T17:58:29.376Z,0.6
2023-01-22T18:01:29.636Z,0.6
2023-01-22T18:04:29.380Z,0.6
2023-01-22T18:07:29.504Z,0.6
2023-01-22T18:10:29.395Z,0.6
2023-01-22T18:13:29.392Z,0.6
2023-01-22T18:16:29.425Z,0.6
2023-01-22T18:19:29.406Z,0.5
2023-01-22T18:22:29.410Z,0.5
2023-01-22T18:25:29.525Z,0.4
2023-01-22T18:28:29.410Z,0.5
2023-01-22T18:31:29.571Z,0.5
2023-01-22T18:34:29.418Z,0.4
2023-01-22T18:37:29.437Z,0.4
2023-01-22T18:40:29.433Z,0.4
2023-01-22T18:43:29.553Z,0.4
2023-01-22T18:46:29.463Z,0.4
2023-01-22T18:49:29.428Z,0.5
2023-01-22T18:52:29.434Z,0.5
2023-01-22T18:55:29.459Z,0.5
2023-01-22T18:58:29.432Z,0.5
2023-01-22T19:01:29.574Z,0.5
2023-01-22T19:04:29.435Z,0.5
2023-01-22T19:07:29.435Z,0.5
2023-01-22T19:10:29.447Z,0.6
2023-01-22T19:13:29.447Z,0.5
2023-01-22T19:16:29.463Z,0.6
2023-01-22T19:19:29.642Z,0.6
2023-01-22T19:22:29.472Z,0.6
2023-01-22T19:25:29.479Z,0.6
2023-01-22T19:28:29.493Z,0.6
2023-01-22T19:31:29.641Z,0.6
2023-01-22T19:34:29.510Z,0.6
2023-01-22T19:37:29.663Z,0.6
2023-01-22T19:40:29.534Z,0.6
2023-01-22T19:43:29.543Z,0.6
2023-01-22T19:46:29.605Z,0.7
2023-01-22T19:49:29.569Z,0.7
2023-01-22T19:52:29.577Z,0.7
2023-01-22T19:55:29.704Z,0.7
2023-01-22T19:58:29.598Z,0.7
2023-01-22T20:01:29.618Z,0.7
2023-01-22T20:04:29.624Z,0.7
2023-01-22T20:07:29.626Z,0.8
2023-01-22T20:10:29.638Z,0.8
2023-01-22T20:13:29.784Z,0.8
2023-01-22T20:16:29.710Z,0.8
2023-01-22T20:19:29.699Z,0.8
2023-01-22T20:22:29.681Z,0.8
2023-01-22T20:25:29.695Z,0.8
2023-01-22T20:28:29.712Z,0.8
2023-01-22T20:31:29.877Z,0.8
2023-01-22T20:34:29.724Z,0.8
2023-01-22T20:37:29.741Z,0.8
2023-01-22T20:40:29.744Z,0.8
2023-01-22T20:43:29.752Z,0.8
2023-01-22T20:46:29.765Z,0.8
2023-01-22T20:49:29.903Z,0.8
2023-01-22T20:52:29.763Z,0.7
2023-01-22T20:55:29.779Z,0.8
2023-01-22T20:58:29.787Z,0.7
2023-01-22T21:01:29.798Z,0.7
2023-01-22T21:04:29.789Z,0.7
2023-01-22T21:07:29.911Z,0.7
2023-01-22T21:10:29.789Z,0.7
2023-01-22T21:13:29.797Z,0.7
2023-01-22T21:16:29.917Z,0.6
2023-01-22T21:19:29.801Z,0.6
2023-01-22T21:22:29.810Z,0.7
2023-01-22T21:25:29.935Z,0.7
2023-01-22T21:28:29.821Z,0.7
2023-01-22T21:31:29.855Z,0.6
2023-01-22T21:34:29.821Z,0.7
2023-01-22T21:37:29.840Z,0.7
2023-01-22T21:40:29.839Z,0.7
2023-01-22T21:43:29.981Z,0.7
2023-01-22T21:46:29.871Z,0.7
2023-01-22T21:49:29.850Z,0.7
2023-01-22T21:52:29.867Z,0.7
2023-01-22T21:55:29.880Z,0.7
2023-01-22T21:58:29.867Z,0.7
2023-01-22T22:01:30.000Z,0.8
2023-01-22T22:04:29.907Z,0.8
2023-01-22T22:07:29.890Z,0.8
2023-01-22T22:10:29.900Z,0.8
2023-01-22T22:13:29.900Z,0.8
2023-01-22T22:16:29.989Z,0.8
2023-01-22T22:19:30.034Z,0.8
2023-01-22T22:22:29.927Z,0.8
2023-01-22T22:25:29.928Z,0.8
2023-01-22T22:28:29.941Z,0.8
2023-01-22T22:31:29.986Z,0.8
2023-01-22T22:34:29.938Z,0.7
2023-01-22T22:37:30.067Z,0.7
2023-01-22T22:40:29.944Z,0.7
2023-01-22T22:43:29.945Z,0.6
2023-01-22T22:46:29.975Z,0.6
2023-01-22T22:49:29.951Z,0.6
2023-01-22T22:52:29.953Z,0.7
2023-01-22T22:55:30.090Z,0.7
2023-01-22T22:58:29.969Z,0.8
2023-01-22T23:01:29.987Z,0.8
2023-01-22T23:04:30.050Z,0.8
2023-01-22T23:07:29.975Z,0.8
2023-01-22T23:10:29.984Z,0.8
2023-01-22T23:13:30.111Z,0.9
2023-01-22T23:16:30.070Z,0.9
2023-01-22T23:19:29.999Z,0.9
2023-01-22T23:22:30.009Z,1
2023-01-22T23:25:30.001Z,1
2023-01-22T23:28:30.004Z,1
2023-01-22T23:31:30.258Z,1
2023-01-22T23:34:30.045Z,1
2023-01-22T23:37:30.022Z,1
2023-01-22T23:40:30.039Z,1
2023-01-22T23:43:30.041Z,1
2023-01-22T23:46:30.087Z,1
2023-01-22T23:49:30.160Z,1
2023-01-22T23:52:30.040Z,1
2023-01-22T23:55:30.045Z,1
2023-01-22T23:58:30.053Z,1
